Hauptseite
METAR-TAF:

METAR-TAF

Flughäfen :

London Oxford Airport

Oxford, England

Breite: 51-50-13N, Länge: 1-19-12W, Höhe: 82 m

Beobachtung

Neuester Wetterbericht von vor 29 Minuten, um 12:20 UTC
Wind 10 kt aus Nord
Temperatur 13°C
Luftfeuchtigkeit 54%
Luftdruck 1038 hPa
Sichtweite 10 km oder mehr
keine Wolken unter 1500 m und keine Kumulonimbus oder Gewitterwolken

METAR: EGTK 221220Z 01010KT CAVOK 13/04 Q1038

Zeit: 13:49 (12:49 UTC)

Prognose

Neuester Wetterbericht von vor 1 Stunde und 53 Minuten, um 10:56 UTC
Gültige Prognose vom 22 um 12 UTC bis 22 um 21 UTC
Wind 10 kt aus Nord
Sichtweite 10 km oder mehr
Leicht bewölkt in der Höhe von 3000 ft
Übergehend zu
vom 22 um 15 UTC bis 22 um 18 UTC
Wind 5 kt aus West/Nordwest

TAF: EGTK 221056Z 2212/2221 36010KT 9999 FEW030 BECMG 2215/2218 29005KT

Wetterbeobachtungen und Prognosen von mehr als 4000 Flughäfen (METAR und TAF Bericht).

Die verfügbaren Stationen werden durch gelbe und rote Markierungen auf der Karte dargestellt.

Führen Sie die Maus auf sie, um den Namen der Station zu sehen.

Darauf klicken, um die Beobachtung von Wetterbeobachtungen und Prognosen zu sehen.

Um die Karte zu ändern : klicken Sie auf den grünen Tasten mit einem schwarzen Kreuz Zum Vergrößern, auf den grünen Button mit einem Gedankenstrich zu verkleinern, oder auf die grünen Pfeile für benachbarte Karten.


METAR-TAF: